sensor_id;sensor_type;location;lat;lon;timestamp;P1;durP1;ratioP1;P2;durP2;ratioP2
35757;SDS011;21879;50.110;18.900;2023-02-28T00:04:29;10.10;;;3.60;;
35757;SDS011;21879;50.110;18.900;2023-02-28T00:14:54;10.20;;;4.30;;
35757;SDS011;21879;50.110;18.900;2023-02-28T00:25:20;7.10;;;3.90;;
35757;SDS011;21879;50.110;18.900;2023-02-28T00:35:45;12.50;;;7.50;;
35757;SDS011;21879;50.110;18.900;2023-02-28T00:46:11;8.90;;;4.10;;
35757;SDS011;21879;50.110;18.900;2023-02-28T00:56:36;6.80;;;3.80;;
35757;SDS011;21879;50.110;18.900;2023-02-28T01:07:00;7.60;;;4.50;;
35757;SDS011;21879;50.110;18.900;2023-02-28T01:17:24;8.90;;;4.80;;
35757;SDS011;21879;50.110;18.900;2023-02-28T01:27:49;8.90;;;3.90;;
35757;SDS011;21879;50.110;18.900;2023-02-28T01:38:14;10.40;;;4.10;;
35757;SDS011;21879;50.110;18.900;2023-02-28T01:48:48;8.00;;;4.60;;
35757;SDS011;21879;50.110;18.900;2023-02-28T01:59:18;10.60;;;5.00;;
35757;SDS011;21879;50.110;18.900;2023-02-28T02:09:48;9.30;;;4.50;;
35757;SDS011;21879;50.110;18.900;2023-02-28T02:31:25;11.30;;;6.50;;
35757;SDS011;21879;50.110;18.900;2023-02-28T02:42:21;10.60;;;5.30;;
35757;SDS011;21879;50.110;18.900;2023-02-28T02:52:51;11.80;;;5.50;;
35757;SDS011;21879;50.110;18.900;2023-02-28T03:03:18;10.20;;;5.60;;
35757;SDS011;21879;50.110;18.900;2023-02-28T03:14:10;15.70;;;7.30;;
35757;SDS011;21879;50.110;18.900;2023-02-28T03:24:50;10.60;;;5.40;;
35757;SDS011;21879;50.110;18.900;2023-02-28T03:35:21;13.90;;;6.50;;
35757;SDS011;21879;50.110;18.900;2023-02-28T03:45:49;12.10;;;6.20;;
35757;SDS011;21879;50.110;18.900;2023-02-28T03:56:16;13.00;;;5.90;;
35757;SDS011;21879;50.110;18.900;2023-02-28T04:06:43;14.70;;;6.70;;
35757;SDS011;21879;50.110;18.900;2023-02-28T04:17:07;11.20;;;6.70;;
35757;SDS011;21879;50.110;18.900;2023-02-28T04:27:32;16.30;;;6.90;;
35757;SDS011;21879;50.110;18.900;2023-02-28T04:37:57;13.80;;;6.30;;
35757;SDS011;21879;50.110;18.900;2023-02-28T04:48:21;13.80;;;5.90;;
35757;SDS011;21879;50.110;18.900;2023-02-28T04:58:46;13.30;;;6.00;;
35757;SDS011;21879;50.110;18.900;2023-02-28T05:09:11;13.40;;;7.00;;
35757;SDS011;21879;50.110;18.900;2023-02-28T05:19:35;11.70;;;6.60;;
35757;SDS011;21879;50.110;18.900;2023-02-28T05:30:00;10.30;;;5.90;;
35757;SDS011;21879;50.110;18.900;2023-02-28T05:40:26;16.70;;;7.60;;
35757;SDS011;21879;50.110;18.900;2023-02-28T05:50:51;13.50;;;7.30;;
35757;SDS011;21879;50.110;18.900;2023-02-28T06:01:30;12.30;;;7.90;;
35757;SDS011;21879;50.110;18.900;2023-02-28T06:11:57;18.60;;;8.50;;
35757;SDS011;21879;50.110;18.900;2023-02-28T06:22:22;15.60;;;8.40;;
35757;SDS011;21879;50.110;18.900;2023-02-28T06:32:46;19.10;;;7.80;;
35757;SDS011;21879;50.110;18.900;2023-02-28T06:43:12;15.60;;;8.40;;
35757;SDS011;21879;50.110;18.900;2023-02-28T06:53:37;19.00;;;12.10;;
35757;SDS011;21879;50.110;18.900;2023-02-28T07:04:01;21.40;;;11.20;;
35757;SDS011;21879;50.110;18.900;2023-02-28T07:14:25;20.00;;;11.00;;
35757;SDS011;21879;50.110;18.900;2023-02-28T07:24:49;14.70;;;8.70;;
35757;SDS011;21879;50.110;18.900;2023-02-28T07:35:14;14.50;;;9.00;;
35757;SDS011;21879;50.110;18.900;2023-02-28T07:45:39;18.40;;;9.90;;
35757;SDS011;21879;50.110;18.900;2023-02-28T07:56:04;16.00;;;9.60;;
35757;SDS011;21879;50.110;18.900;2023-02-28T08:06:30;15.60;;;8.60;;
35757;SDS011;21879;50.110;18.900;2023-02-28T08:16:54;20.80;;;13.70;;
35757;SDS011;21879;50.110;18.900;2023-02-28T08:27:19;23.20;;;14.20;;
35757;SDS011;21879;50.110;18.900;2023-02-28T08:37:43;18.70;;;10.70;;
35757;SDS011;21879;50.110;18.900;2023-02-28T08:48:11;16.20;;;10.90;;
35757;SDS011;21879;50.110;18.900;2023-02-28T08:58:36;16.70;;;9.60;;
35757;SDS011;21879;50.110;18.900;2023-02-28T09:09:00;10.70;;;6.70;;
35757;SDS011;21879;50.110;18.900;2023-02-28T09:19:27;16.40;;;8.70;;
35757;SDS011;21879;50.110;18.900;2023-02-28T09:29:52;12.60;;;7.50;;
35757;SDS011;21879;50.110;18.900;2023-02-28T09:40:17;12.20;;;7.00;;
35757;SDS011;21879;50.110;18.900;2023-02-28T09:50:44;11.40;;;6.60;;
35757;SDS011;21879;50.110;18.900;2023-02-28T10:01:12;10.30;;;5.50;;
35757;SDS011;21879;50.110;18.900;2023-02-28T10:11:46;10.60;;;6.50;;
35757;SDS011;21879;50.110;18.900;2023-02-28T10:22:19;11.80;;;6.70;;
35757;SDS011;21879;50.110;18.900;2023-02-28T10:32:47;12.10;;;8.00;;
35757;SDS011;21879;50.110;18.900;2023-02-28T10:43:20;13.60;;;7.40;;
35757;SDS011;21879;50.110;18.900;2023-02-28T10:53:47;12.90;;;7.40;;
35757;SDS011;21879;50.110;18.900;2023-02-28T11:04:34;10.50;;;7.10;;
35757;SDS011;21879;50.110;18.900;2023-02-28T11:15:02;12.40;;;7.10;;
35757;SDS011;21879;50.110;18.900;2023-02-28T11:25:30;13.10;;;7.60;;
35757;SDS011;21879;50.110;18.900;2023-02-28T11:35:58;13.00;;;7.20;;
35757;SDS011;21879;50.110;18.900;2023-02-28T11:46:29;14.10;;;9.40;;
35757;SDS011;21879;50.110;18.900;2023-02-28T11:57:02;14.70;;;8.50;;
35757;SDS011;21879;50.110;18.900;2023-02-28T12:07:41;14.40;;;9.60;;
35757;SDS011;21879;50.110;18.900;2023-02-28T12:18:19;15.20;;;8.90;;
35757;SDS011;21879;50.110;18.900;2023-02-28T12:28:59;13.60;;;8.00;;
35757;SDS011;21879;50.110;18.900;2023-02-28T12:39:29;15.40;;;8.40;;
35757;SDS011;21879;50.110;18.900;2023-02-28T12:50:12;13.80;;;8.90;;
35757;SDS011;21879;50.110;18.900;2023-02-28T13:00:38;16.30;;;7.80;;
35757;SDS011;21879;50.110;18.900;2023-02-28T13:11:26;14.50;;;9.10;;
35757;SDS011;21879;50.110;18.900;2023-02-28T13:21:52;10.40;;;6.50;;
35757;SDS011;21879;50.110;18.900;2023-02-28T13:43:08;11.20;;;6.30;;
35757;SDS011;21879;50.110;18.900;2023-02-28T13:53:52;15.70;;;8.20;;
35757;SDS011;21879;50.110;18.900;2023-02-28T14:15:26;15.50;;;8.80;;
35757;SDS011;21879;50.110;18.900;2023-02-28T14:26:06;26.00;;;16.10;;
35757;SDS011;21879;50.110;18.900;2023-02-28T14:36:42;14.20;;;6.90;;
35757;SDS011;21879;50.110;18.900;2023-02-28T14:47:11;13.20;;;7.00;;
35757;SDS011;21879;50.110;18.900;2023-02-28T14:57:40;10.10;;;6.10;;
35757;SDS011;21879;50.110;18.900;2023-02-28T15:08:14;11.30;;;6.80;;
35757;SDS011;21879;50.110;18.900;2023-02-28T15:18:42;11.30;;;7.40;;
35757;SDS011;21879;50.110;18.900;2023-02-28T15:29:12;14.00;;;7.90;;
35757;SDS011;21879;50.110;18.900;2023-02-28T15:39:41;16.70;;;6.40;;
35757;SDS011;21879;50.110;18.900;2023-02-28T15:50:09;10.30;;;6.70;;
35757;SDS011;21879;50.110;18.900;2023-02-28T16:00:37;10.80;;;6.60;;
35757;SDS011;21879;50.110;18.900;2023-02-28T16:11:01;9.20;;;5.60;;
35757;SDS011;21879;50.110;18.900;2023-02-28T16:21:26;11.70;;;6.60;;
35757;SDS011;21879;50.110;18.900;2023-02-28T16:31:51;15.30;;;6.20;;
35757;SDS011;21879;50.110;18.900;2023-02-28T16:42:16;10.60;;;6.30;;
35757;SDS011;21879;50.110;18.900;2023-02-28T16:52:45;12.30;;;6.40;;
35757;SDS011;21879;50.110;18.900;2023-02-28T17:03:14;9.50;;;6.00;;
35757;SDS011;21879;50.110;18.900;2023-02-28T17:13:55;12.30;;;7.00;;
35757;SDS011;21879;50.110;18.900;2023-02-28T17:24:19;14.20;;;7.50;;
35757;SDS011;21879;50.110;18.900;2023-02-28T17:34:53;17.30;;;10.30;;
35757;SDS011;21879;50.110;18.900;2023-02-28T17:45:17;13.20;;;8.20;;
35757;SDS011;21879;50.110;18.900;2023-02-28T17:55:42;16.20;;;9.90;;
35757;SDS011;21879;50.110;18.900;2023-02-28T18:06:07;13.60;;;9.20;;
35757;SDS011;21879;50.110;18.900;2023-02-28T18:16:37;19.30;;;13.00;;
35757;SDS011;21879;50.110;18.900;2023-02-28T18:27:02;18.80;;;11.10;;
35757;SDS011;21879;50.110;18.900;2023-02-28T18:37:28;18.30;;;11.70;;
35757;SDS011;21879;50.110;18.900;2023-02-28T18:47:52;21.10;;;12.30;;
35757;SDS011;21879;50.110;18.900;2023-02-28T18:58:16;22.10;;;13.60;;
35757;SDS011;21879;50.110;18.900;2023-02-28T19:08:40;18.50;;;12.40;;
35757;SDS011;21879;50.110;18.900;2023-02-28T19:19:06;23.70;;;13.80;;
35757;SDS011;21879;50.110;18.900;2023-02-28T19:29:31;29.50;;;17.60;;
35757;SDS011;21879;50.110;18.900;2023-02-28T19:39:55;25.60;;;16.40;;
35757;SDS011;21879;50.110;18.900;2023-02-28T19:50:21;27.60;;;15.90;;
35757;SDS011;21879;50.110;18.900;2023-02-28T20:00:46;19.20;;;12.40;;
35757;SDS011;21879;50.110;18.900;2023-02-28T20:11:19;25.80;;;14.10;;
35757;SDS011;21879;50.110;18.900;2023-02-28T20:21:44;27.10;;;17.00;;
35757;SDS011;21879;50.110;18.900;2023-02-28T20:32:09;23.40;;;15.30;;
35757;SDS011;21879;50.110;18.900;2023-02-28T20:42:35;24.50;;;15.80;;
35757;SDS011;21879;50.110;18.900;2023-02-28T20:53:00;30.20;;;17.20;;
35757;SDS011;21879;50.110;18.900;2023-02-28T21:03:25;36.30;;;20.40;;
35757;SDS011;21879;50.110;18.900;2023-02-28T21:13:50;35.40;;;18.80;;
35757;SDS011;21879;50.110;18.900;2023-02-28T21:24:17;34.80;;;22.70;;
35757;SDS011;21879;50.110;18.900;2023-02-28T21:34:42;32.60;;;20.50;;
35757;SDS011;21879;50.110;18.900;2023-02-28T21:45:06;32.10;;;20.20;;
35757;SDS011;21879;50.110;18.900;2023-02-28T21:55:33;34.80;;;22.70;;
35757;SDS011;21879;50.110;18.900;2023-02-28T22:05:57;39.40;;;23.10;;
35757;SDS011;21879;50.110;18.900;2023-02-28T22:16:22;37.10;;;21.60;;
35757;SDS011;21879;50.110;18.900;2023-02-28T22:26:49;42.40;;;23.10;;
35757;SDS011;21879;50.110;18.900;2023-02-28T22:37:13;39.60;;;25.10;;
35757;SDS011;21879;50.110;18.900;2023-02-28T22:47:38;62.60;;;35.10;;
35757;SDS011;21879;50.110;18.900;2023-02-28T22:58:02;35.20;;;25.40;;
35757;SDS011;21879;50.110;18.900;2023-02-28T23:08:26;37.20;;;21.30;;
35757;SDS011;21879;50.110;18.900;2023-02-28T23:18:51;33.60;;;18.30;;
35757;SDS011;21879;50.110;18.900;2023-02-28T23:29:16;32.30;;;18.10;;
35757;SDS011;21879;50.110;18.900;2023-02-28T23:39:41;24.90;;;15.50;;
35757;SDS011;21879;50.110;18.900;2023-02-28T23:50:05;36.30;;;22.50;;
